CY-0005 weather

Kornos Highway Strip
Larnarca District, Cyprus

Public forecast

Using degrees Celsius for public forecast. Weather courtesy of forecast.io.

METAR (pilot weather report)

Closest report is Larnaca International Airport, 11.1 nm (20.5 km) E. Retrieved 2019/06/17 08:30 UTC (18 minutes ago):

LCLK 170830Z 19011KT 9999 FEW025 FEW040TCU 28/22 Q1008 BECMG 22020KT

TAF (pilot weather forecast)

Closest forecast is Larnaca International Airport, 11.1 nm (20.5 km) E. Retrieved 2019/06/17 06:30 UTC (2 hours ago):

TAF LCLK 170530Z 1706/1806 20008KT 9999 FEW015 SCT023 BECMG 1708/1711 22018KT PROB30 TEMPO 1710/1716 VRB17G30KT 3000 TS SHRA FEW025CB BECMG 1716/1719 24008KT